Portada
METAR-TAF:

METAR-TAF

Aeroports :

Plataforma petroliera

P11-b, Països Baixos

latitud: 52-21-36N, longitud: 3-20-30E, altitud: 24 m

Observació

L'informe es va fer fa 22 minuts, a les 15:55 UTC
Vent 31 kt del Sud-Oest
Temperatura 14°C
Humitat 94%
Pressió 1010 hPa
Visibilitat: 6000 m
Núvols disperses a una alçada menor de 100 ft
Cel ennuvolat a una alçada de 500 ft
Cel ennuvolat a una alçada de 700 ft
pluja

METAR: EHPG 291555Z AUTO 22031KT 6000 -RA SCT000 BKN005 BKN007 14/13 Q1010 RERA REDZ

Hora: 17:17 (16:17 UTC)


TAF: manca

Observacions i pronòstics meteorològics de més de 4000 aeroports (METAR i TAF).

Les estacions disponibles són els punts grocs i vermells al mapa.

Posi el ratolí al punt desitjat per veure el nom de l'estació.

Feu clic per veure les observacions i els pronòstics meteorològics.

Per canviar el mapa: feu clic els botons verds amb una creu de color negre per apropar; al botó verd amb un guió per allunyar la imatge; o en les fletxes verdes per a mapes adjacents.


METAR-TAF: